This is the latest recevied weather packets stored in our database for station/object W2SBL-1. If no packets are shown the sender has not sent any weather packets the latest 10 day(s).
| Time | Temp. | Humidity | Pressure | Rain* | Wind** | Luminosity | Snow |
|---|---|---|---|---|---|---|---|
| 1787802153 | 25° C | 53% | 1017.7 hPa | - | - | - | - |
| 1787801253 | 22.78° C | 53% | 1013.8 hPa | - | - | - | - |
| 1787800353 | 25° C | 53% | 1017.8 hPa | - | - | - | - |
| 1787799453 | 25° C | 53% | 1017.7 hPa | - | - | - | - |
| 1787798553 | 25° C | 53% | 1017.6 hPa | - | - | - | - |
| 1787797653 | 25° C | 53% | 1017.5 hPa | - | - | - | - |
| 1787796753 | 24.44° C | 54% | 1017.6 hPa | - | - | - | - |
| 1787795853 | 24.44° C | 54% | 1017.6 hPa | - | - | - | - |
| 1787794953 | 24.44° C | 54% | 1017.5 hPa | - | - | - | - |
| 1787794052 | 24.44° C | 54% | 1017.6 hPa | - | - | - | - |
| 1787793152 | 24.44° C | 55% | 1023.3 hPa | - | - | - | - |
| 1787792252 | 25° C | 54% | 1017.5 hPa | - | - | - | - |
| 1787791352 | 25° C | 54% | 1017.5 hPa | - | - | - | - |
| 1787790452 | 25.56° C | 54% | 1017.3 hPa | - | - | - | - |
| 1787789552 | 25.56° C | 54% | 1017.1 hPa | - | - | - | - |
| 1787788652 | 26.11° C | 54% | 1017 hPa | - | - | - | - |
| 1787787752 | 15° C | 54% | 998.8 hPa | - | - | - | - |
| 1787786852 | 26.67° C | 54% | 1017 hPa | - | - | - | - |
| 1787785952 | 26.67° C | 54% | 1017 hPa | - | - | - | - |
| 1787785052 | 27.22° C | 54% | 1021.9 hPa | - | - | - | - |
| 1787784152 | 27.22° C | 54% | 1023.8 hPa | - | - | - | - |
| 1787783251 | 27.78° C | 54% | 1017 hPa | - | - | - | - |
| 1787782351 | 28.89° C | 54% | 1017 hPa | - | - | - | - |
| 1787781451 | 29.44° C | 53% | 1017.1 hPa | - | - | - | - |
| 1787780551 | 30° C | 52% | 1017.1 hPa | - | - | - | - |
* Rain since midnight (hover to see other rain measurements)
** Current wind speed in m/s (hover to see current wind gust speed)